sensor_id;sensor_type;location;lat;lon;timestamp;P1;durP1;ratioP1;P2;durP2;ratioP2
9322;SDS011;4700;48.822;9.270;2023-03-01T02:38:39;142.50;;;74.03;;
9322;SDS011;4700;48.822;9.270;2023-03-01T02:54:52;131.77;;;73.03;;
9322;SDS011;4700;48.822;9.270;2023-03-01T03:10:37;111.55;;;65.63;;
9322;SDS011;4700;48.822;9.270;2023-03-01T03:33:57;112.43;;;66.50;;
9322;SDS011;4700;48.822;9.270;2023-03-01T03:44:25;124.28;;;72.32;;
9322;SDS011;4700;48.822;9.270;2023-03-01T03:49:44;108.47;;;66.07;;
9322;SDS011;4700;48.822;9.270;2023-03-01T04:07:44;149.52;;;86.15;;
9322;SDS011;4700;48.822;9.270;2023-03-01T04:10:31;138.27;;;72.90;;
9322;SDS011;4700;48.822;9.270;2023-03-01T04:18:28;120.32;;;67.18;;
9322;SDS011;4700;48.822;9.270;2023-03-01T04:21:16;127.50;;;71.13;;
9322;SDS011;4700;48.822;9.270;2023-03-01T04:24:05;126.28;;;68.97;;
9322;SDS011;4700;48.822;9.270;2023-03-01T04:26:53;127.03;;;70.35;;
9322;SDS011;4700;48.822;9.270;2023-03-01T04:29:39;125.70;;;68.22;;
9322;SDS011;4700;48.822;9.270;2023-03-01T04:32:25;128.63;;;72.00;;
9322;SDS011;4700;48.822;9.270;2023-03-01T04:35:11;123.97;;;69.78;;
9322;SDS011;4700;48.822;9.270;2023-03-01T04:37:58;122.43;;;70.68;;
9322;SDS011;4700;48.822;9.270;2023-03-01T04:40:48;123.10;;;68.60;;
9322;SDS011;4700;48.822;9.270;2023-03-01T04:43:35;128.43;;;69.88;;
9322;SDS011;4700;48.822;9.270;2023-03-01T04:46:21;126.95;;;68.60;;
9322;SDS011;4700;48.822;9.270;2023-03-01T04:49:07;129.75;;;71.18;;
9322;SDS011;4700;48.822;9.270;2023-03-01T04:51:54;135.88;;;73.13;;
9322;SDS011;4700;48.822;9.270;2023-03-01T04:54:48;133.98;;;72.28;;
9322;SDS011;4700;48.822;9.270;2023-03-01T04:57:37;133.02;;;73.40;;
9322;SDS011;4700;48.822;9.270;2023-03-01T05:00:25;133.48;;;72.50;;
9322;SDS011;4700;48.822;9.270;2023-03-01T05:03:13;131.45;;;71.03;;
9322;SDS011;4700;48.822;9.270;2023-03-01T05:06:02;137.52;;;72.85;;
9322;SDS011;4700;48.822;9.270;2023-03-01T05:08:48;133.20;;;71.25;;
9322;SDS011;4700;48.822;9.270;2023-03-01T05:11:35;124.18;;;69.80;;
9322;SDS011;4700;48.822;9.270;2023-03-01T05:14:24;128.65;;;71.72;;
9322;SDS011;4700;48.822;9.270;2023-03-01T05:17:13;125.50;;;71.10;;
9322;SDS011;4700;48.822;9.270;2023-03-01T05:19:59;128.90;;;71.68;;
9322;SDS011;4700;48.822;9.270;2023-03-01T05:22:50;131.85;;;73.95;;
9322;SDS011;4700;48.822;9.270;2023-03-01T05:25:38;133.52;;;72.60;;
9322;SDS011;4700;48.822;9.270;2023-03-01T05:28:25;124.93;;;69.97;;
9322;SDS011;4700;48.822;9.270;2023-03-01T05:31:14;126.10;;;69.53;;
9322;SDS011;4700;48.822;9.270;2023-03-01T05:34:01;121.20;;;68.07;;
9322;SDS011;4700;48.822;9.270;2023-03-01T05:39:24;126.63;;;70.75;;
9322;SDS011;4700;48.822;9.270;2023-03-01T05:42:11;133.63;;;71.40;;
9322;SDS011;4700;48.822;9.270;2023-03-01T05:45:00;130.85;;;68.72;;
9322;SDS011;4700;48.822;9.270;2023-03-01T05:47:49;136.10;;;72.93;;
9322;SDS011;4700;48.822;9.270;2023-03-01T05:50:37;137.48;;;72.25;;
9322;SDS011;4700;48.822;9.270;2023-03-01T05:53:26;149.98;;;76.80;;
9322;SDS011;4700;48.822;9.270;2023-03-01T05:56:14;146.35;;;76.47;;
9322;SDS011;4700;48.822;9.270;2023-03-01T05:59:06;147.35;;;77.10;;
9322;SDS011;4700;48.822;9.270;2023-03-01T06:01:54;150.57;;;79.75;;
9322;SDS011;4700;48.822;9.270;2023-03-01T06:04:43;143.25;;;74.78;;
9322;SDS011;4700;48.822;9.270;2023-03-01T06:07:30;130.98;;;70.57;;
9322;SDS011;4700;48.822;9.270;2023-03-01T06:10:17;136.27;;;71.40;;
9322;SDS011;4700;48.822;9.270;2023-03-01T06:13:04;142.25;;;73.63;;
9322;SDS011;4700;48.822;9.270;2023-03-01T06:15:50;138.40;;;72.50;;
9322;SDS011;4700;48.822;9.270;2023-03-01T06:23:48;125.97;;;69.32;;
9322;SDS011;4700;48.822;9.270;2023-03-01T06:26:35;134.95;;;73.10;;
9322;SDS011;4700;48.822;9.270;2023-03-01T06:31:54;127.65;;;71.97;;
9322;SDS011;4700;48.822;9.270;2023-03-01T06:37:14;130.02;;;72.57;;
9322;SDS011;4700;48.822;9.270;2023-03-01T06:40:06;144.50;;;80.93;;
9322;SDS011;4700;48.822;9.270;2023-03-01T06:42:56;135.68;;;71.82;;
9322;SDS011;4700;48.822;9.270;2023-03-01T06:45:47;134.48;;;73.00;;
9322;SDS011;4700;48.822;9.270;2023-03-01T07:03:54;123.57;;;77.80;;
9322;SDS011;4700;48.822;9.270;2023-03-01T07:21:51;204.73;;;109.55;;
9322;SDS011;4700;48.822;9.270;2023-03-01T07:37:28;150.65;;;78.25;;
9322;SDS011;4700;48.822;9.270;2023-03-01T07:55:36;159.63;;;97.35;;
9322;SDS011;4700;48.822;9.270;2023-03-01T07:58:23;156.68;;;95.82;;
9322;SDS011;4700;48.822;9.270;2023-03-01T08:01:11;154.98;;;95.50;;
9322;SDS011;4700;48.822;9.270;2023-03-01T08:04:00;136.13;;;100.10;;
9322;SDS011;4700;48.822;9.270;2023-03-01T08:06:48;134.40;;;96.78;;
9322;SDS011;4700;48.822;9.270;2023-03-01T08:09:36;132.48;;;99.57;;
9322;SDS011;4700;48.822;9.270;2023-03-01T08:12:24;125.00;;;104.35;;
9322;SDS011;4700;48.822;9.270;2023-03-01T08:15:12;172.40;;;159.20;;
9322;SDS011;4700;48.822;9.270;2023-03-01T08:17:57;171.73;;;158.35;;
9322;SDS011;4700;48.822;9.270;2023-03-01T08:23:37;226.95;;;213.43;;
9322;SDS011;4700;48.822;9.270;2023-03-01T08:26:23;209.63;;;196.93;;
9322;SDS011;4700;48.822;9.270;2023-03-01T08:29:10;174.37;;;164.73;;
9322;SDS011;4700;48.822;9.270;2023-03-01T08:31:56;115.67;;;107.27;;
9322;SDS011;4700;48.822;9.270;2023-03-01T08:34:42;86.47;;;80.43;;
9322;SDS011;4700;48.822;9.270;2023-03-01T08:37:31;74.53;;;69.10;;
9322;SDS011;4700;48.822;9.270;2023-03-01T08:40:16;65.93;;;59.73;;
9322;SDS011;4700;48.822;9.270;2023-03-01T08:43:02;57.27;;;52.70;;
9322;SDS011;4700;48.822;9.270;2023-03-01T08:45:52;66.33;;;59.13;;
9322;SDS011;4700;48.822;9.270;2023-03-01T08:48:37;54.97;;;49.90;;
9322;SDS011;4700;48.822;9.270;2023-03-01T08:51:27;72.27;;;65.43;;
9322;SDS011;4700;48.822;9.270;2023-03-01T08:54:14;63.93;;;49.77;;
9322;SDS011;4700;48.822;9.270;2023-03-01T08:57:02;48.77;;;43.53;;
9322;SDS011;4700;48.822;9.270;2023-03-01T08:59:48;58.00;;;52.30;;
9322;SDS011;4700;48.822;9.270;2023-03-01T09:02:36;39.70;;;36.27;;
9322;SDS011;4700;48.822;9.270;2023-03-01T09:05:22;47.23;;;43.30;;
9322;SDS011;4700;48.822;9.270;2023-03-01T09:08:09;50.30;;;45.10;;
9322;SDS011;4700;48.822;9.270;2023-03-01T09:10:56;56.40;;;50.47;;
9322;SDS011;4700;48.822;9.270;2023-03-01T09:13:48;52.03;;;47.20;;
9322;SDS011;4700;48.822;9.270;2023-03-01T09:16:34;42.97;;;38.87;;
9322;SDS011;4700;48.822;9.270;2023-03-01T09:19:22;52.50;;;46.60;;
9322;SDS011;4700;48.822;9.270;2023-03-01T09:24:41;45.13;;;40.40;;
9322;SDS011;4700;48.822;9.270;2023-03-01T09:27:27;44.23;;;39.73;;
9322;SDS011;4700;48.822;9.270;2023-03-01T09:30:13;57.03;;;51.63;;
9322;SDS011;4700;48.822;9.270;2023-03-01T09:32:59;38.20;;;34.33;;
9322;SDS011;4700;48.822;9.270;2023-03-01T09:35:47;47.50;;;41.13;;
9322;SDS011;4700;48.822;9.270;2023-03-01T09:38:34;38.97;;;35.73;;
9322;SDS011;4700;48.822;9.270;2023-03-01T09:41:36;53.73;;;47.93;;
9322;SDS011;4700;48.822;9.270;2023-03-01T09:44:34;48.67;;;43.57;;
9322;SDS011;4700;48.822;9.270;2023-03-01T09:47:26;45.53;;;40.77;;
9322;SDS011;4700;48.822;9.270;2023-03-01T09:50:14;47.77;;;41.10;;
9322;SDS011;4700;48.822;9.270;2023-03-01T09:53:03;46.27;;;42.03;;
9322;SDS011;4700;48.822;9.270;2023-03-01T09:55:54;55.10;;;50.00;;
9322;SDS011;4700;48.822;9.270;2023-03-01T09:58:47;50.13;;;45.70;;
9322;SDS011;4700;48.822;9.270;2023-03-01T10:01:38;40.23;;;30.40;;
9322;SDS011;4700;48.822;9.270;2023-03-01T10:04:35;35.97;;;32.90;;
9322;SDS011;4700;48.822;9.270;2023-03-01T10:07:32;36.13;;;32.83;;
9322;SDS011;4700;48.822;9.270;2023-03-01T10:10:32;38.77;;;35.00;;
9322;SDS011;4700;48.822;9.270;2023-03-01T10:15:56;74.87;;;39.53;;
9322;SDS011;4700;48.822;9.270;2023-03-01T10:18:51;33.13;;;29.97;;
9322;SDS011;4700;48.822;9.270;2023-03-01T10:21:41;58.40;;;42.33;;
9322;SDS011;4700;48.822;9.270;2023-03-01T10:24:31;34.33;;;31.03;;
9322;SDS011;4700;48.822;9.270;2023-03-01T10:27:21;34.07;;;30.97;;
9322;SDS011;4700;48.822;9.270;2023-03-01T10:30:10;38.23;;;34.80;;
9322;SDS011;4700;48.822;9.270;2023-03-01T10:33:05;41.57;;;35.60;;
9322;SDS011;4700;48.822;9.270;2023-03-01T10:36:01;43.53;;;39.27;;
9322;SDS011;4700;48.822;9.270;2023-03-01T10:38:48;45.90;;;41.50;;
9322;SDS011;4700;48.822;9.270;2023-03-01T10:41:40;48.60;;;44.63;;
9322;SDS011;4700;48.822;9.270;2023-03-01T10:44:43;46.03;;;42.07;;
9322;SDS011;4700;48.822;9.270;2023-03-01T10:47:32;54.73;;;49.80;;
9322;SDS011;4700;48.822;9.270;2023-03-01T10:50:20;66.17;;;59.93;;
9322;SDS011;4700;48.822;9.270;2023-03-01T10:53:21;51.93;;;45.57;;
9322;SDS011;4700;48.822;9.270;2023-03-01T10:56:10;46.90;;;42.07;;
9322;SDS011;4700;48.822;9.270;2023-03-01T10:58:58;38.87;;;34.63;;
9322;SDS011;4700;48.822;9.270;2023-03-01T11:01:49;52.37;;;46.83;;
9322;SDS011;4700;48.822;9.270;2023-03-01T11:04:58;39.40;;;35.47;;
9322;SDS011;4700;48.822;9.270;2023-03-01T11:07:48;57.83;;;51.83;;
9322;SDS011;4700;48.822;9.270;2023-03-01T11:10:35;57.10;;;51.10;;
9322;SDS011;4700;48.822;9.270;2023-03-01T11:13:22;53.70;;;49.13;;
9322;SDS011;4700;48.822;9.270;2023-03-01T11:16:10;63.90;;;52.83;;
9322;SDS011;4700;48.822;9.270;2023-03-01T11:19:01;45.87;;;41.17;;
9322;SDS011;4700;48.822;9.270;2023-03-01T11:22:02;46.57;;;41.73;;
9322;SDS011;4700;48.822;9.270;2023-03-01T11:24:51;37.70;;;34.03;;
9322;SDS011;4700;48.822;9.270;2023-03-01T11:27:40;43.43;;;39.13;;
9322;SDS011;4700;48.822;9.270;2023-03-01T11:30:31;51.50;;;46.40;;
9322;SDS011;4700;48.822;9.270;2023-03-01T11:33:24;42.90;;;38.60;;
9322;SDS011;4700;48.822;9.270;2023-03-01T11:36:23;56.60;;;50.90;;
9322;SDS011;4700;48.822;9.270;2023-03-01T11:39:17;43.67;;;40.03;;
9322;SDS011;4700;48.822;9.270;2023-03-01T11:42:11;48.27;;;43.77;;
9322;SDS011;4700;48.822;9.270;2023-03-01T11:45:02;46.83;;;42.30;;
9322;SDS011;4700;48.822;9.270;2023-03-01T11:47:57;40.03;;;32.83;;
9322;SDS011;4700;48.822;9.270;2023-03-01T11:50:52;55.40;;;50.47;;
9322;SDS011;4700;48.822;9.270;2023-03-01T11:53:56;46.57;;;41.60;;
9322;SDS011;4700;48.822;9.270;2023-03-01T11:56:52;50.80;;;45.57;;
9322;SDS011;4700;48.822;9.270;2023-03-01T11:59:55;47.70;;;43.00;;
9322;SDS011;4700;48.822;9.270;2023-03-01T12:09:38;63.53;;;55.57;;
9322;SDS011;4700;48.822;9.270;2023-03-01T12:12:38;41.03;;;35.47;;
9322;SDS011;4700;48.822;9.270;2023-03-01T12:15:42;47.93;;;43.77;;
9322;SDS011;4700;48.822;9.270;2023-03-01T12:18:57;44.50;;;40.60;;
9322;SDS011;4700;48.822;9.270;2023-03-01T12:22:02;66.97;;;48.80;;
9322;SDS011;4700;48.822;9.270;2023-03-01T12:25:14;46.03;;;42.13;;
9322;SDS011;4700;48.822;9.270;2023-03-01T12:28:16;46.77;;;42.97;;
9322;SDS011;4700;48.822;9.270;2023-03-01T12:34:48;50.33;;;46.20;;
9322;SDS011;4700;48.822;9.270;2023-03-01T12:37:48;50.87;;;46.50;;
9322;SDS011;4700;48.822;9.270;2023-03-01T12:44:10;57.93;;;51.40;;
9322;SDS011;4700;48.822;9.270;2023-03-01T12:47:11;57.80;;;51.03;;
9322;SDS011;4700;48.822;9.270;2023-03-01T12:50:05;40.93;;;36.90;;
9322;SDS011;4700;48.822;9.270;2023-03-01T12:52:59;36.57;;;33.67;;
9322;SDS011;4700;48.822;9.270;2023-03-01T12:55:44;50.93;;;46.13;;
9322;SDS011;4700;48.822;9.270;2023-03-01T12:58:34;41.33;;;36.37;;
9322;SDS011;4700;48.822;9.270;2023-03-01T13:01:30;59.13;;;42.70;;
9322;SDS011;4700;48.822;9.270;2023-03-01T13:04:28;50.47;;;45.67;;
9322;SDS011;4700;48.822;9.270;2023-03-01T13:07:23;48.67;;;44.40;;
9322;SDS011;4700;48.822;9.270;2023-03-01T13:10:18;51.00;;;45.20;;
9322;SDS011;4700;48.822;9.270;2023-03-01T13:13:15;65.33;;;55.87;;
9322;SDS011;4700;48.822;9.270;2023-03-01T13:16:38;62.93;;;57.07;;
9322;SDS011;4700;48.822;9.270;2023-03-01T13:19:26;60.97;;;55.63;;
9322;SDS011;4700;48.822;9.270;2023-03-01T13:22:26;75.40;;;67.57;;
9322;SDS011;4700;48.822;9.270;2023-03-01T13:25:16;80.03;;;73.47;;
9322;SDS011;4700;48.822;9.270;2023-03-01T13:34:46;50.83;;;46.27;;
9322;SDS011;4700;48.822;9.270;2023-03-01T13:37:36;67.77;;;60.63;;
9322;SDS011;4700;48.822;9.270;2023-03-01T13:43:44;55.67;;;50.73;;
9322;SDS011;4700;48.822;9.270;2023-03-01T13:46:32;67.27;;;57.70;;
9322;SDS011;4700;48.822;9.270;2023-03-01T13:49:20;51.40;;;46.43;;
9322;SDS011;4700;48.822;9.270;2023-03-01T13:52:26;57.53;;;51.53;;
9322;SDS011;4700;48.822;9.270;2023-03-01T13:55:24;52.30;;;46.90;;
9322;SDS011;4700;48.822;9.270;2023-03-01T13:58:23;51.47;;;46.43;;
9322;SDS011;4700;48.822;9.270;2023-03-01T14:01:18;46.33;;;41.50;;
9322;SDS011;4700;48.822;9.270;2023-03-01T14:04:20;46.83;;;42.43;;
9322;SDS011;4700;48.822;9.270;2023-03-01T14:07:10;53.50;;;48.10;;
9322;SDS011;4700;48.822;9.270;2023-03-01T14:09:58;46.37;;;41.57;;
9322;SDS011;4700;48.822;9.270;2023-03-01T14:12:47;66.73;;;47.07;;
9322;SDS011;4700;48.822;9.270;2023-03-01T14:15:39;52.70;;;47.60;;
9322;SDS011;4700;48.822;9.270;2023-03-01T14:18:31;49.87;;;44.87;;
9322;SDS011;4700;48.822;9.270;2023-03-01T14:21:22;49.10;;;44.17;;
9322;SDS011;4700;48.822;9.270;2023-03-01T14:24:15;52.13;;;47.20;;
9322;SDS011;4700;48.822;9.270;2023-03-01T14:27:04;47.23;;;42.60;;
9322;SDS011;4700;48.822;9.270;2023-03-01T14:29:57;64.23;;;58.03;;
9322;SDS011;4700;48.822;9.270;2023-03-01T14:32:51;51.60;;;46.17;;
9322;SDS011;4700;48.822;9.270;2023-03-01T14:35:38;57.77;;;52.10;;
9322;SDS011;4700;48.822;9.270;2023-03-01T14:38:29;77.93;;;71.40;;
9322;SDS011;4700;48.822;9.270;2023-03-01T14:41:18;59.20;;;54.47;;
9322;SDS011;4700;48.822;9.270;2023-03-01T14:44:07;47.07;;;42.37;;
9322;SDS011;4700;48.822;9.270;2023-03-01T14:47:01;51.50;;;46.87;;
9322;SDS011;4700;48.822;9.270;2023-03-01T14:49:48;58.83;;;53.63;;
9322;SDS011;4700;48.822;9.270;2023-03-01T14:52:40;55.43;;;50.53;;
9322;SDS011;4700;48.822;9.270;2023-03-01T14:55:31;49.07;;;44.67;;
9322;SDS011;4700;48.822;9.270;2023-03-01T14:58:19;51.53;;;47.10;;
9322;SDS011;4700;48.822;9.270;2023-03-01T15:01:10;60.57;;;54.80;;
9322;SDS011;4700;48.822;9.270;2023-03-01T15:04:00;60.50;;;54.23;;
9322;SDS011;4700;48.822;9.270;2023-03-01T15:06:50;58.97;;;52.80;;
9322;SDS011;4700;48.822;9.270;2023-03-01T15:09:37;59.73;;;53.40;;
9322;SDS011;4700;48.822;9.270;2023-03-01T15:12:32;51.13;;;45.17;;
9322;SDS011;4700;48.822;9.270;2023-03-01T15:15:33;43.83;;;39.70;;
9322;SDS011;4700;48.822;9.270;2023-03-01T15:18:21;42.97;;;38.97;;
9322;SDS011;4700;48.822;9.270;2023-03-01T15:21:15;50.93;;;46.33;;
9322;SDS011;4700;48.822;9.270;2023-03-01T15:24:04;43.27;;;39.67;;
9322;SDS011;4700;48.822;9.270;2023-03-01T15:27:03;42.17;;;37.90;;
9322;SDS011;4700;48.822;9.270;2023-03-01T15:29:54;44.33;;;39.67;;
9322;SDS011;4700;48.822;9.270;2023-03-01T15:32:42;42.00;;;34.73;;
9322;SDS011;4700;48.822;9.270;2023-03-01T15:35:41;46.50;;;42.63;;
9322;SDS011;4700;48.822;9.270;2023-03-01T15:38:30;47.07;;;42.10;;
9322;SDS011;4700;48.822;9.270;2023-03-01T15:41:23;42.47;;;37.90;;
9322;SDS011;4700;48.822;9.270;2023-03-01T15:44:17;48.43;;;43.37;;
9322;SDS011;4700;48.822;9.270;2023-03-01T15:47:23;43.77;;;38.90;;
9322;SDS011;4700;48.822;9.270;2023-03-01T15:50:16;35.50;;;31.87;;
9322;SDS011;4700;48.822;9.270;2023-03-01T15:53:05;49.63;;;44.63;;
9322;SDS011;4700;48.822;9.270;2023-03-01T15:55:54;44.37;;;40.40;;
9322;SDS011;4700;48.822;9.270;2023-03-01T15:58:40;39.27;;;35.80;;
9322;SDS011;4700;48.822;9.270;2023-03-01T16:01:26;54.03;;;47.90;;
9322;SDS011;4700;48.822;9.270;2023-03-01T16:04:14;44.27;;;40.47;;
9322;SDS011;4700;48.822;9.270;2023-03-01T16:07:06;44.30;;;40.37;;
9322;SDS011;4700;48.822;9.270;2023-03-01T16:09:53;42.20;;;38.80;;
9322;SDS011;4700;48.822;9.270;2023-03-01T16:12:39;36.03;;;32.37;;
9322;SDS011;4700;48.822;9.270;2023-03-01T16:15:26;40.60;;;36.83;;
9322;SDS011;4700;48.822;9.270;2023-03-01T16:18:12;37.90;;;34.10;;
9322;SDS011;4700;48.822;9.270;2023-03-01T16:21:00;46.27;;;41.93;;
9322;SDS011;4700;48.822;9.270;2023-03-01T16:23:46;54.27;;;49.07;;
9322;SDS011;4700;48.822;9.270;2023-03-01T16:26:32;59.77;;;54.40;;
9322;SDS011;4700;48.822;9.270;2023-03-01T16:29:18;63.37;;;57.90;;
9322;SDS011;4700;48.822;9.270;2023-03-01T16:32:03;48.10;;;43.43;;
9322;SDS011;4700;48.822;9.270;2023-03-01T16:34:49;53.97;;;48.63;;
9322;SDS011;4700;48.822;9.270;2023-03-01T16:37:36;52.13;;;47.47;;
9322;SDS011;4700;48.822;9.270;2023-03-01T16:40:23;45.43;;;41.50;;
9322;SDS011;4700;48.822;9.270;2023-03-01T16:43:10;52.37;;;47.23;;
9322;SDS011;4700;48.822;9.270;2023-03-01T16:45:56;46.97;;;42.40;;
9322;SDS011;4700;48.822;9.270;2023-03-01T16:48:43;50.83;;;46.27;;
9322;SDS011;4700;48.822;9.270;2023-03-01T16:51:30;59.27;;;54.63;;
9322;SDS011;4700;48.822;9.270;2023-03-01T16:54:20;68.67;;;62.37;;
9322;SDS011;4700;48.822;9.270;2023-03-01T16:57:05;65.03;;;59.87;;
9322;SDS011;4700;48.822;9.270;2023-03-01T16:59:51;74.63;;;69.00;;
9322;SDS011;4700;48.822;9.270;2023-03-01T17:02:38;80.00;;;74.57;;
9322;SDS011;4700;48.822;9.270;2023-03-01T17:05:24;91.90;;;85.37;;
9322;SDS011;4700;48.822;9.270;2023-03-01T17:08:11;137.43;;;125.83;;
9322;SDS011;4700;48.822;9.270;2023-03-01T17:11:03;152.20;;;137.40;;
9322;SDS011;4700;48.822;9.270;2023-03-01T17:13:51;141.77;;;128.30;;
9322;SDS011;4700;48.822;9.270;2023-03-01T17:16:37;122.77;;;111.43;;
9322;SDS011;4700;48.822;9.270;2023-03-01T17:19:23;118.20;;;107.00;;
9322;SDS011;4700;48.822;9.270;2023-03-01T17:22:09;120.57;;;108.97;;
9322;SDS011;4700;48.822;9.270;2023-03-01T17:24:56;91.20;;;81.60;;
9322;SDS011;4700;48.822;9.270;2023-03-01T17:27:44;97.73;;;84.80;;
9322;SDS011;4700;48.822;9.270;2023-03-01T17:30:30;105.70;;;86.40;;
9322;SDS011;4700;48.822;9.270;2023-03-01T17:33:16;104.53;;;80.00;;
9322;SDS011;4700;48.822;9.270;2023-03-01T17:36:03;101.60;;;81.47;;
9322;SDS011;4700;48.822;9.270;2023-03-01T17:38:50;99.60;;;79.13;;
9322;SDS011;4700;48.822;9.270;2023-03-01T17:41:36;98.13;;;80.43;;
9322;SDS011;4700;48.822;9.270;2023-03-01T17:44:23;98.50;;;78.17;;
9322;SDS011;4700;48.822;9.270;2023-03-01T17:47:10;95.90;;;73.13;;
9322;SDS011;4700;48.822;9.270;2023-03-01T17:49:56;93.37;;;71.63;;
9322;SDS011;4700;48.822;9.270;2023-03-01T17:52:42;84.40;;;66.63;;
9322;SDS011;4700;48.822;9.270;2023-03-01T17:57:58;84.60;;;73.97;;
9322;SDS011;4700;48.822;9.270;2023-03-01T18:00:46;91.97;;;81.07;;
9322;SDS011;4700;48.822;9.270;2023-03-01T18:03:34;99.07;;;79.37;;
9322;SDS011;4700;48.822;9.270;2023-03-01T18:06:21;99.57;;;79.87;;
9322;SDS011;4700;48.822;9.270;2023-03-01T18:09:08;97.97;;;76.50;;
9322;SDS011;4700;48.822;9.270;2023-03-01T18:11:54;100.20;;;73.30;;
9322;SDS011;4700;48.822;9.270;2023-03-01T18:14:41;101.90;;;78.23;;
9322;SDS011;4700;48.822;9.270;2023-03-01T18:17:28;100.77;;;73.37;;
9322;SDS011;4700;48.822;9.270;2023-03-01T18:20:15;104.87;;;75.47;;
9322;SDS011;4700;48.822;9.270;2023-03-01T18:23:01;103.10;;;73.60;;
9322;SDS011;4700;48.822;9.270;2023-03-01T18:25:49;103.30;;;72.13;;
9322;SDS011;4700;48.822;9.270;2023-03-01T18:28:38;111.87;;;74.43;;
9322;SDS011;4700;48.822;9.270;2023-03-01T18:31:24;117.53;;;75.43;;
9322;SDS011;4700;48.822;9.270;2023-03-01T18:34:12;121.87;;;75.60;;
9322;SDS011;4700;48.822;9.270;2023-03-01T18:36:58;107.17;;;72.13;;
9322;SDS011;4700;48.822;9.270;2023-03-01T18:39:44;118.00;;;76.80;;
9322;SDS011;4700;48.822;9.270;2023-03-01T18:42:30;130.37;;;80.87;;
9322;SDS011;4700;48.822;9.270;2023-03-01T18:47:46;92.57;;;67.70;;
9322;SDS011;4700;48.822;9.270;2023-03-01T18:53:07;102.77;;;69.83;;
9322;SDS011;4700;48.822;9.270;2023-03-01T18:55:57;90.30;;;65.80;;
9322;SDS011;4700;48.822;9.270;2023-03-01T19:01:15;110.40;;;79.37;;
9322;SDS011;4700;48.822;9.270;2023-03-01T19:04:03;118.50;;;79.27;;
9322;SDS011;4700;48.822;9.270;2023-03-01T19:06:49;134.63;;;86.13;;
9322;SDS011;4700;48.822;9.270;2023-03-01T19:09:39;179.40;;;123.93;;
9322;SDS011;4700;48.822;9.270;2023-03-01T19:17:30;112.57;;;79.83;;
9322;SDS011;4700;48.822;9.270;2023-03-01T20:24:44;117.40;;;71.80;;
9322;SDS011;4700;48.822;9.270;2023-03-01T20:27:30;132.23;;;74.05;;
9322;SDS011;4700;48.822;9.270;2023-03-01T20:30:16;131.97;;;71.60;;
9322;SDS011;4700;48.822;9.270;2023-03-01T20:33:03;131.32;;;76.15;;
9322;SDS011;4700;48.822;9.270;2023-03-01T20:35:49;152.25;;;83.70;;
9322;SDS011;4700;48.822;9.270;2023-03-01T20:38:35;148.20;;;85.25;;
